createdAt,value
2018-08-17T00:00:43.123Z,11.03
2018-08-17T00:03:11.512Z,4.80
2018-08-17T00:05:39.906Z,7.60
2018-08-17T00:08:08.235Z,6.53
2018-08-17T00:10:36.717Z,7.93
2018-08-17T00:13:05.342Z,6.60
2018-08-17T00:15:33.721Z,9.43
2018-08-17T00:18:02.006Z,4.50
2018-08-17T00:20:30.466Z,4.97
2018-08-17T00:22:59.391Z,5.10
2018-08-17T00:25:27.844Z,7.13
2018-08-17T00:27:56.265Z,5.07
2018-08-17T00:30:24.705Z,7.63
2018-08-17T00:32:53.132Z,5.57
2018-08-17T00:35:21.469Z,5.67
2018-08-17T00:37:49.817Z,5.67
2018-08-17T00:40:18.228Z,6.13
2018-08-17T00:42:46.609Z,4.90
2018-08-17T00:45:14.974Z,5.00
2018-08-17T00:47:43.339Z,6.33
2018-08-17T00:50:11.742Z,8.70
2018-08-17T00:52:40.110Z,4.00
2018-08-17T00:55:08.565Z,5.60
2018-08-17T00:57:36.934Z,4.63
2018-08-17T01:00:05.904Z,5.30
2018-08-17T01:02:34.243Z,5.53
2018-08-17T01:05:02.624Z,5.23
2018-08-17T01:07:31.054Z,6.80
2018-08-17T01:09:59.436Z,6.60
2018-08-17T01:12:28.655Z,5.03
2018-08-17T01:14:57.480Z,5.43
2018-08-17T01:17:25.984Z,5.00
2018-08-17T01:19:54.450Z,5.23
2018-08-17T01:22:22.912Z,5.87
2018-08-17T01:24:51.498Z,5.13
2018-08-17T01:27:19.859Z,6.50
2018-08-17T01:29:48.154Z,5.43
2018-08-17T01:32:16.473Z,13.43
2018-08-17T01:34:44.884Z,6.40
2018-08-17T01:37:13.192Z,5.80
2018-08-17T01:39:41.549Z,13.63
2018-08-17T01:42:09.889Z,8.50
2018-08-17T01:44:38.233Z,5.33
2018-08-17T01:47:06.857Z,9.80
2018-08-17T01:49:35.219Z,13.20
2018-08-17T01:52:03.706Z,5.67
2018-08-17T01:54:32.291Z,6.33
2018-08-17T01:57:00.736Z,5.50
2018-08-17T01:59:29.463Z,5.50
2018-08-17T02:01:57.868Z,10.50
2018-08-17T02:04:26.449Z,5.40
2018-08-17T02:06:54.895Z,6.90
2018-08-17T02:09:23.192Z,7.70
2018-08-17T02:11:51.553Z,5.60
2018-08-17T02:14:19.908Z,6.60
2018-08-17T02:16:48.291Z,8.63
2018-08-17T02:19:16.764Z,5.63
2018-08-17T02:21:45.273Z,7.93
2018-08-17T02:24:13.642Z,7.23
2018-08-17T02:26:42.011Z,7.00
2018-08-17T02:29:10.602Z,7.97
2018-08-17T02:31:39.017Z,8.20
2018-08-17T02:34:07.346Z,9.13
2018-08-17T02:36:35.718Z,5.87
2018-08-17T02:39:05.550Z,6.47
2018-08-17T02:41:34.007Z,6.73
2018-08-17T02:44:02.345Z,5.47
2018-08-17T02:46:30.709Z,6.63
2018-08-17T02:48:59.190Z,5.60
2018-08-17T02:51:27.553Z,8.27
2018-08-17T02:53:55.939Z,5.70
2018-08-17T02:56:24.451Z,5.97
2018-08-17T02:58:52.895Z,6.63
2018-08-17T03:01:21.345Z,7.30
2018-08-17T03:03:49.793Z,12.83
2018-08-17T03:06:18.201Z,12.20
2018-08-17T03:08:46.625Z,6.17
2018-08-17T03:11:15.035Z,7.40
2018-08-17T03:13:43.413Z,5.63
2018-08-17T03:16:11.731Z,12.90
2018-08-17T03:18:40.134Z,6.23
2018-08-17T03:21:08.706Z,9.67
2018-08-17T03:23:37.101Z,6.70
2018-08-17T03:26:05.489Z,7.10
2018-08-17T03:28:33.984Z,7.43
2018-08-17T03:31:02.392Z,8.53
2018-08-17T03:33:30.804Z,6.50
2018-08-17T03:35:59.156Z,8.27
2018-08-17T03:38:27.549Z,7.40
2018-08-17T03:40:55.922Z,5.80
2018-08-17T03:43:24.307Z,10.27
2018-08-17T03:45:53.232Z,6.37
2018-08-17T03:48:21.567Z,6.60
2018-08-17T03:50:50.704Z,10.87
2018-08-17T03:53:19.108Z,9.00
2018-08-17T03:55:47.512Z,8.90
2018-08-17T03:58:15.958Z,7.87
2018-08-17T04:00:44.360Z,7.37
2018-08-17T04:03:12.665Z,6.00
2018-08-17T04:05:40.958Z,6.17
2018-08-17T04:08:09.367Z,8.10
2018-08-17T04:10:37.788Z,8.90
2018-08-17T04:13:06.590Z,6.90
2018-08-17T04:15:35.090Z,6.07
2018-08-17T04:18:03.543Z,7.03
2018-08-17T04:20:32.894Z,6.13
2018-08-17T04:23:01.248Z,9.30
2018-08-17T04:25:29.790Z,11.50
2018-08-17T04:27:58.148Z,5.63
2018-08-17T04:30:26.537Z,5.57
2018-08-17T04:32:54.952Z,6.40
2018-08-17T04:35:23.631Z,8.23
2018-08-17T04:37:51.984Z,8.77
2018-08-17T04:40:20.346Z,5.70
2018-08-17T04:42:48.666Z,6.20
2018-08-17T04:45:17.005Z,6.43
2018-08-17T04:47:45.339Z,7.17
2018-08-17T04:50:13.675Z,5.90
2018-08-17T04:52:42.123Z,7.17
2018-08-17T04:55:10.586Z,5.67
2018-08-17T04:57:38.946Z,6.97
2018-08-17T05:00:08.693Z,5.30
2018-08-17T05:02:37.496Z,5.73
2018-08-17T05:05:06.519Z,5.57
2018-08-17T05:07:35.865Z,5.83
2018-08-17T05:10:04.836Z,6.17
2018-08-17T05:12:33.250Z,8.27
2018-08-17T05:15:01.680Z,7.70
2018-08-17T05:17:30.844Z,6.23
2018-08-17T05:19:59.251Z,7.97
2018-08-17T05:22:27.602Z,9.80
2018-08-17T05:24:56.048Z,8.37
2018-08-17T05:27:24.412Z,8.23
2018-08-17T05:29:52.743Z,8.67
2018-08-17T05:32:21.090Z,10.47
2018-08-17T05:34:49.490Z,7.63
2018-08-17T05:37:17.811Z,7.00
2018-08-17T05:39:46.108Z,6.60
2018-08-17T05:42:14.507Z,8.23
2018-08-17T05:44:42.871Z,7.20
2018-08-17T05:47:11.174Z,13.53
2018-08-17T05:49:39.536Z,5.60
2018-08-17T05:52:08.043Z,9.13
2018-08-17T05:54:36.396Z,13.33
2018-08-17T05:57:04.774Z,7.30
2018-08-17T05:59:33.168Z,8.63
2018-08-17T06:02:01.680Z,5.93
2018-08-17T06:04:29.997Z,7.50
2018-08-17T06:06:58.369Z,6.17
2018-08-17T06:09:26.791Z,5.40
2018-08-17T06:11:55.210Z,6.00
2018-08-17T06:14:23.537Z,11.40
2018-08-17T06:16:52.147Z,5.77
2018-08-17T06:19:20.511Z,5.60
2018-08-17T06:21:49.002Z,11.33
2018-08-17T06:24:17.409Z,9.70
2018-08-17T06:26:45.769Z,6.60
2018-08-17T06:29:14.096Z,5.63
2018-08-17T06:31:42.551Z,13.37
2018-08-17T06:34:10.898Z,10.57
2018-08-17T06:36:39.280Z,6.50
2018-08-17T06:39:09.799Z,5.07
2018-08-17T06:41:38.656Z,4.80
2018-08-17T06:44:07.128Z,4.57
2018-08-17T06:46:35.651Z,5.00
2018-08-17T06:49:04.085Z,4.70
2018-08-17T06:51:32.509Z,7.00
2018-08-17T06:54:00.805Z,11.40
2018-08-17T06:56:29.178Z,7.17
2018-08-17T06:58:57.634Z,5.63
2018-08-17T07:01:26.096Z,4.50
2018-08-17T07:03:54.485Z,6.17
2018-08-17T07:06:23.536Z,6.30
2018-08-17T07:08:51.965Z,8.00
2018-08-17T07:11:20.409Z,4.93
2018-08-17T07:13:48.838Z,5.33
2018-08-17T07:16:17.173Z,3.97
2018-08-17T07:18:45.482Z,5.07
2018-08-17T07:21:13.880Z,4.70
2018-08-17T07:23:42.214Z,4.60
2018-08-17T07:26:10.614Z,6.80
2018-08-17T07:28:39.024Z,3.63
2018-08-17T07:31:07.374Z,6.70
2018-08-17T07:33:35.758Z,5.67
2018-08-17T07:36:04.256Z,4.33
2018-08-17T07:38:32.582Z,8.50
2018-08-17T07:41:00.952Z,5.10
2018-08-17T07:43:29.322Z,3.73
2018-08-17T07:45:57.652Z,5.03
2018-08-17T07:48:26.084Z,4.17
2018-08-17T07:50:54.513Z,3.80
2018-08-17T07:53:22.898Z,9.17
2018-08-17T07:55:51.250Z,9.37
2018-08-17T07:58:19.598Z,6.17
2018-08-17T08:00:48.875Z,5.63
2018-08-17T08:03:17.229Z,4.60
2018-08-17T08:05:45.586Z,4.10
2018-08-17T08:08:13.971Z,4.20
2018-08-17T08:10:42.893Z,5.77
2018-08-17T08:13:11.334Z,6.40
2018-08-17T08:15:39.709Z,5.30
2018-08-17T08:18:08.164Z,10.83
2018-08-17T08:20:38.432Z,4.90
2018-08-17T08:23:18.088Z,4.20
2018-08-17T08:25:46.529Z,3.63
2018-08-17T08:28:14.892Z,4.43
2018-08-17T08:30:43.469Z,4.63
2018-08-17T08:33:12.370Z,5.07
2018-08-17T08:35:40.804Z,10.40
2018-08-17T08:38:09.444Z,4.43
2018-08-17T08:40:38.047Z,9.23
2018-08-17T08:43:07.597Z,8.97
2018-08-17T08:45:35.970Z,5.80
2018-08-17T08:48:05.643Z,4.30
2018-08-17T08:50:33.996Z,4.73
2018-08-17T08:53:02.369Z,11.60
2018-08-17T08:55:31.442Z,6.70
2018-08-17T08:58:00.649Z,6.63
2018-08-17T09:00:29.148Z,5.57
2018-08-17T09:02:57.590Z,4.20
2018-08-17T09:05:25.960Z,5.30
2018-08-17T09:07:54.547Z,5.63
2018-08-17T09:10:23.341Z,5.30
2018-08-17T09:12:51.753Z,9.90
2018-08-17T09:15:20.170Z,5.83
2018-08-17T09:17:48.442Z,10.37
2018-08-17T09:20:17.413Z,5.23
2018-08-17T09:22:45.686Z,5.03
2018-08-17T09:25:14.147Z,4.33
2018-08-17T09:27:42.510Z,6.00
2018-08-17T09:30:14.434Z,5.60
2018-08-17T09:32:42.696Z,5.43
2018-08-17T09:35:12.445Z,6.40
2018-08-17T09:37:40.992Z,5.97
2018-08-17T09:40:10.343Z,8.50
2018-08-17T09:42:38.792Z,8.60
2018-08-17T09:45:09.191Z,5.57
2018-08-17T09:47:37.833Z,13.57
2018-08-17T09:50:08.533Z,5.67
2018-08-17T09:52:37.160Z,7.23
2018-08-17T09:55:05.547Z,5.17
2018-08-17T09:57:33.907Z,5.67
2018-08-17T10:00:03.332Z,7.57
2018-08-17T10:02:36.931Z,8.17
2018-08-17T10:05:10.701Z,5.70
2018-08-17T10:07:45.087Z,4.70
2018-08-17T10:10:17.833Z,18.43
2018-08-17T10:12:48.583Z,11.40
2018-08-17T10:15:16.982Z,5.00
2018-08-17T10:17:45.323Z,6.73
2018-08-17T10:20:16.464Z,6.20
2018-08-17T10:22:45.456Z,5.53
2018-08-17T10:25:19.305Z,5.30
2018-08-17T10:27:49.934Z,7.23
2018-08-17T10:30:19.427Z,7.20
2018-08-17T10:32:58.171Z,11.87
2018-08-17T10:35:28.069Z,6.90
2018-08-17T10:37:59.592Z,5.10
2018-08-17T10:40:28.379Z,6.97
2018-08-17T10:42:58.721Z,7.10
2018-08-17T10:45:29.535Z,6.00
2018-08-17T10:47:58.463Z,13.10
2018-08-17T10:50:28.530Z,14.00
2018-08-17T10:52:59.188Z,7.10
2018-08-17T10:55:35.630Z,9.50
2018-08-17T10:58:04.585Z,5.33
2018-08-17T11:00:32.938Z,7.27
2018-08-17T11:03:01.325Z,6.87
2018-08-17T11:05:29.673Z,5.60
2018-08-17T11:07:58.046Z,6.70
2018-08-17T11:10:26.434Z,5.73
2018-08-17T11:12:54.766Z,5.73
2018-08-17T11:15:23.278Z,7.20
2018-08-17T11:17:51.683Z,5.17
2018-08-17T11:20:20.110Z,4.73
2018-08-17T11:22:48.512Z,16.20
2018-08-17T11:25:17.752Z,5.10
2018-08-17T11:27:46.157Z,4.60
2018-08-17T11:30:15.407Z,5.83
2018-08-17T11:32:43.807Z,6.40
2018-08-17T11:35:12.183Z,4.67
2018-08-17T11:37:40.720Z,5.70
2018-08-17T11:40:10.308Z,4.60
2018-08-17T11:42:45.153Z,9.30
2018-08-17T11:45:16.958Z,4.90
2018-08-17T11:47:45.785Z,5.40
2018-08-17T11:50:18.586Z,6.17
2018-08-17T11:52:50.984Z,5.10
2018-08-17T11:55:20.133Z,4.50
2018-08-17T11:57:48.643Z,5.60
2018-08-17T12:00:17.253Z,7.87
2018-08-17T12:02:46.027Z,17.00
2018-08-17T12:05:14.452Z,4.60
2018-08-17T12:07:45.133Z,4.87
2018-08-17T12:10:13.574Z,9.63
2018-08-17T12:12:42.797Z,7.07
2018-08-17T12:15:11.989Z,5.27
2018-08-17T12:17:40.396Z,9.40
2018-08-17T12:20:08.856Z,5.07
2018-08-17T12:22:37.320Z,4.77
2018-08-17T12:25:07.056Z,4.17
2018-08-17T12:27:35.341Z,4.40
2018-08-17T12:30:04.005Z,4.10
2018-08-17T12:32:32.348Z,4.40
2018-08-17T12:35:00.679Z,5.80
2018-08-17T12:37:29.123Z,16.27
2018-08-17T12:39:57.662Z,7.03
2018-08-17T12:42:26.307Z,11.40
2018-08-17T12:45:02.313Z,12.20
2018-08-17T12:47:31.512Z,3.60
2018-08-17T12:50:00.111Z,4.23
2018-08-17T12:52:28.605Z,4.00
2018-08-17T12:54:56.903Z,3.80
2018-08-17T12:57:29.607Z,7.20
2018-08-17T12:59:58.027Z,11.83
2018-08-17T13:02:26.454Z,4.43
2018-08-17T13:04:54.785Z,6.30
2018-08-17T13:07:23.207Z,4.23
2018-08-17T13:09:54.091Z,4.30
2018-08-17T13:12:22.464Z,4.63
2018-08-17T13:14:52.188Z,4.60
2018-08-17T13:17:20.901Z,6.03
2018-08-17T13:19:49.226Z,5.10
2018-08-17T13:22:17.649Z,4.37
2018-08-17T13:24:46.086Z,12.63
2018-08-17T13:27:15.170Z,4.10
2018-08-17T13:29:43.643Z,6.87
2018-08-17T13:32:12.279Z,4.20
2018-08-17T13:34:40.727Z,3.20
2018-08-17T13:37:09.068Z,3.23
2018-08-17T13:39:37.465Z,3.07
2018-08-17T13:42:06.139Z,3.00
2018-08-17T13:44:34.515Z,2.87
2018-08-17T13:47:02.908Z,2.70
2018-08-17T13:49:32.143Z,3.20
2018-08-17T13:52:00.464Z,2.83
2018-08-17T13:54:29.548Z,3.10
2018-08-17T13:56:57.943Z,3.03
2018-08-17T13:59:26.317Z,7.30
2018-08-17T14:01:54.701Z,3.33
2018-08-17T14:04:23.143Z,3.10
2018-08-17T14:06:51.572Z,3.33
2018-08-17T14:09:20.000Z,3.03
2018-08-17T14:11:48.413Z,3.37
2018-08-17T14:14:16.781Z,3.07
2018-08-17T14:16:45.193Z,4.37
2018-08-17T14:19:14.684Z,8.60
2018-08-17T14:21:43.072Z,3.77
2018-08-17T14:24:11.448Z,4.10
2018-08-17T14:26:39.825Z,5.17
2018-08-17T14:29:08.238Z,3.87
2018-08-17T14:31:36.670Z,4.53
2018-08-17T14:34:05.022Z,5.43
2018-08-17T14:36:33.400Z,3.83
2018-08-17T14:39:01.822Z,5.63
2018-08-17T14:41:30.190Z,4.97
2018-08-17T14:43:58.667Z,10.33
2018-08-17T14:46:27.139Z,4.27
2018-08-17T14:48:55.431Z,6.70
2018-08-17T14:51:23.789Z,4.27
2018-08-17T14:53:52.126Z,6.17
2018-08-17T14:56:20.479Z,4.77
2018-08-17T14:58:48.949Z,6.40
2018-08-17T15:01:17.318Z,9.33
2018-08-17T15:03:45.765Z,5.73
2018-08-17T15:06:14.179Z,13.23
2018-08-17T15:08:42.612Z,8.40
2018-08-17T15:11:11.059Z,5.97
2018-08-17T15:13:39.528Z,5.80
2018-08-17T15:16:07.817Z,5.87
2018-08-17T15:18:36.168Z,4.83
2018-08-17T15:21:04.580Z,8.23
2018-08-17T15:23:33.097Z,5.93
2018-08-17T15:26:01.508Z,6.27
2018-08-17T15:28:29.824Z,5.50
2018-08-17T15:30:58.868Z,5.90
2018-08-17T15:33:27.894Z,5.00
2018-08-17T15:35:56.350Z,5.30
2018-08-17T15:38:24.685Z,5.70
2018-08-17T15:40:53.098Z,6.80
2018-08-17T15:43:21.479Z,6.97
2018-08-17T15:45:50.411Z,7.87
2018-08-17T15:48:19.204Z,8.00
2018-08-17T15:50:47.719Z,4.60
2018-08-17T15:53:16.170Z,8.90
2018-08-17T15:55:44.813Z,4.60
2018-08-17T15:58:13.146Z,4.83
2018-08-17T16:00:41.983Z,6.43
2018-08-17T16:03:10.419Z,4.37
2018-08-17T16:05:38.859Z,4.37
2018-08-17T16:08:07.331Z,4.50
2018-08-17T16:10:35.684Z,7.27
2018-08-17T16:13:04.125Z,4.87
2018-08-17T16:15:32.437Z,5.73
2018-08-17T16:18:01.009Z,4.10
2018-08-17T16:20:29.349Z,5.53
2018-08-17T16:22:57.696Z,5.13
2018-08-17T16:25:26.036Z,4.40
2018-08-17T16:27:54.534Z,6.23
2018-08-17T16:30:22.994Z,3.97
2018-08-17T16:32:51.384Z,4.10
2018-08-17T16:35:19.775Z,3.90
2018-08-17T16:37:48.951Z,7.47
2018-08-17T16:40:17.421Z,6.00
2018-08-17T16:42:49.400Z,4.43
2018-08-17T16:45:19.030Z,5.07
2018-08-17T16:47:47.439Z,4.70
2018-08-17T16:50:15.793Z,7.73
2018-08-17T16:52:44.409Z,4.47
2018-08-17T16:55:12.854Z,5.43
2018-08-17T16:57:41.368Z,5.00
2018-08-17T17:00:11.042Z,5.90
2018-08-17T17:02:40.386Z,5.13
2018-08-17T17:05:09.182Z,4.73
2018-08-17T17:07:37.642Z,5.10
2018-08-17T17:10:08.277Z,6.53
2018-08-17T17:12:36.835Z,4.93
2018-08-17T17:15:19.879Z,5.87
2018-08-17T17:18:03.514Z,6.73
2018-08-17T17:20:36.095Z,10.00
2018-08-17T17:23:06.412Z,6.27
2018-08-17T17:25:34.806Z,6.70
2018-08-17T17:28:03.243Z,5.90
2018-08-17T17:30:42.060Z,7.30
2018-08-17T17:33:11.181Z,7.00
2018-08-17T17:35:40.702Z,7.13
2018-08-17T17:38:09.679Z,8.00
2018-08-17T17:40:38.182Z,7.13
2018-08-17T17:43:06.958Z,5.70
2018-08-17T17:45:35.808Z,5.47
2018-08-17T17:48:04.297Z,5.40
2018-08-17T17:50:32.770Z,5.87
2018-08-17T17:53:02.046Z,5.53
2018-08-17T17:55:40.635Z,7.50
2018-08-17T17:58:09.886Z,6.17
2018-08-17T18:00:38.286Z,13.03
2018-08-17T18:03:07.519Z,6.63
2018-08-17T18:05:35.919Z,8.97
2018-08-17T18:08:09.563Z,7.73
2018-08-17T18:10:44.993Z,7.60
2018-08-17T18:13:13.351Z,7.07
2018-08-17T18:15:41.767Z,9.23
2018-08-17T18:18:10.326Z,9.43
2018-08-17T18:20:38.813Z,11.73
2018-08-17T18:23:07.733Z,8.30
2018-08-17T18:25:36.195Z,15.10
2018-08-17T18:28:05.263Z,10.63
2018-08-17T18:30:33.713Z,12.83
2018-08-17T18:33:02.078Z,9.50
2018-08-17T18:35:30.468Z,12.13
2018-08-17T18:37:58.891Z,10.60
2018-08-17T18:40:27.246Z,13.07
2018-08-17T18:42:55.641Z,12.13
2018-08-17T18:45:24.036Z,12.80
2018-08-17T18:47:52.542Z,12.80
2018-08-17T18:50:20.889Z,16.27
2018-08-17T18:52:49.413Z,10.30
2018-08-17T18:55:17.780Z,11.80
2018-08-17T18:57:46.446Z,15.93
2018-08-17T19:00:14.924Z,20.70
2018-08-17T19:02:43.257Z,13.43
2018-08-17T19:05:11.851Z,16.70
2018-08-17T19:07:40.321Z,11.97
2018-08-17T19:10:09.686Z,11.77
2018-08-17T19:12:38.136Z,10.17
2018-08-17T19:15:08.969Z,13.73
2018-08-17T19:17:37.779Z,13.93
2018-08-17T19:20:08.255Z,16.83
2018-08-17T19:22:37.969Z,13.27
2018-08-17T19:25:07.786Z,13.10
2018-08-17T19:27:37.995Z,18.50
2018-08-17T19:30:12.944Z,14.77
2018-08-17T19:32:41.356Z,11.03
2018-08-17T19:35:09.751Z,18.10
2018-08-17T19:37:40.878Z,10.80
2018-08-17T19:40:09.240Z,11.00
2018-08-17T19:42:37.719Z,16.10
2018-08-17T19:45:06.053Z,10.87
2018-08-17T19:47:34.364Z,11.30
2018-08-17T19:50:02.826Z,10.60
2018-08-17T19:52:31.324Z,17.33
2018-08-17T19:54:59.684Z,10.23
2018-08-17T19:57:28.067Z,9.17
2018-08-17T19:59:56.397Z,13.23
2018-08-17T20:02:24.867Z,10.50
2018-08-17T20:04:53.458Z,8.80
2018-08-17T20:07:21.867Z,12.27
2018-08-17T20:09:50.201Z,14.60
2018-08-17T20:12:18.613Z,10.43
2018-08-17T20:14:47.017Z,9.10
2018-08-17T20:17:15.633Z,10.53
2018-08-17T20:19:49.057Z,8.90
2018-08-17T20:22:21.268Z,11.73
2018-08-17T20:24:49.759Z,15.93
2018-08-17T20:27:19.097Z,9.57
2018-08-17T20:29:47.689Z,11.27
2018-08-17T20:32:16.254Z,10.83
2018-08-17T20:34:46.975Z,9.07
2018-08-17T20:37:16.157Z,9.27
2018-08-17T20:39:45.698Z,10.03
2018-08-17T20:42:14.106Z,12.97
2018-08-17T20:44:42.599Z,11.00
2018-08-17T20:47:11.838Z,12.43
2018-08-17T20:49:40.405Z,9.43
2018-08-17T20:52:09.171Z,10.77
2018-08-17T20:54:37.656Z,21.10
2018-08-17T20:57:06.381Z,11.70
2018-08-17T20:59:34.717Z,10.20
2018-08-17T21:02:03.121Z,11.50
2018-08-17T21:04:31.930Z,12.07
2018-08-17T21:07:00.453Z,11.50
2018-08-17T21:09:29.159Z,9.73
2018-08-17T21:11:57.596Z,10.93
2018-08-17T21:14:25.978Z,12.77
2018-08-17T21:16:54.368Z,16.83
2018-08-17T21:19:34.093Z,18.03
2018-08-17T21:22:02.680Z,11.13
2018-08-17T21:24:34.999Z,13.40
2018-08-17T21:27:05.088Z,11.10
2018-08-17T21:29:34.664Z,12.53
2018-08-17T21:32:04.736Z,12.20
2018-08-17T21:34:33.755Z,12.27
2018-08-17T21:37:02.847Z,14.97
2018-08-17T21:39:32.785Z,13.87
2018-08-17T21:42:01.173Z,12.87
2018-08-17T21:44:29.637Z,12.77
2018-08-17T21:47:02.608Z,13.70
2018-08-17T21:49:31.057Z,12.20
2018-08-17T21:52:01.233Z,12.67
2018-08-17T21:54:30.310Z,14.50
2018-08-17T21:57:00.107Z,15.13
2018-08-17T21:59:32.928Z,15.53
2018-08-17T22:02:02.477Z,13.03
2018-08-17T22:04:31.319Z,15.50
2018-08-17T22:07:03.139Z,13.93
2018-08-17T22:09:38.876Z,15.83
2018-08-17T22:12:08.238Z,9.10
2018-08-17T22:14:37.028Z,15.27
2018-08-17T22:17:05.898Z,18.33
2018-08-17T22:19:39.835Z,21.80
2018-08-17T22:22:10.255Z,25.13
2018-08-17T22:24:43.923Z,25.73
2018-08-17T22:27:15.327Z,18.20
2018-08-17T22:29:45.442Z,24.10
2018-08-17T22:32:13.802Z,21.37
2018-08-17T22:34:42.206Z,23.90
2018-08-17T22:37:10.622Z,20.60
2018-08-17T22:39:39.043Z,20.47
2018-08-17T22:42:07.892Z,23.30
2018-08-17T22:44:36.310Z,22.70
2018-08-17T22:47:15.155Z,20.97
2018-08-17T22:49:43.585Z,18.50
2018-08-17T22:52:12.250Z,18.67
2018-08-17T22:54:44.891Z,20.23
2018-08-17T22:57:13.277Z,20.23
2018-08-17T22:59:41.930Z,19.10
2018-08-17T23:02:10.532Z,18.63
2018-08-17T23:04:38.875Z,19.53
2018-08-17T23:07:07.314Z,24.00
2018-08-17T23:09:35.762Z,21.33
2018-08-17T23:12:04.385Z,26.20
2018-08-17T23:14:32.849Z,18.40
2018-08-17T23:17:01.310Z,18.87
2018-08-17T23:19:29.828Z,20.90
2018-08-17T23:21:58.304Z,20.00
2018-08-17T23:24:26.924Z,19.90
2018-08-17T23:26:55.265Z,15.80
2018-08-17T23:29:23.694Z,24.23
2018-08-17T23:31:52.086Z,22.13
2018-08-17T23:34:20.616Z,19.37
2018-08-17T23:36:48.970Z,21.23
2018-08-17T23:39:17.344Z,19.70
2018-08-17T23:41:45.726Z,24.87
2018-08-17T23:44:14.247Z,25.13
2018-08-17T23:46:42.841Z,21.10
2018-08-17T23:49:11.190Z,20.60
2018-08-17T23:51:39.716Z,21.80
2018-08-17T23:54:08.088Z,22.80
2018-08-17T23:56:36.412Z,20.73
2018-08-17T23:59:05.549Z,21.27
